Share

Nuea Khlong, Thailand

Ao Nang, Krabi (IKRABIAO1) Elev 177 ft | 8.05 °N, 98.84 °E | Change Station

Current weather conditions updated 1 minute ago

Mostly Cloudy
Mostly Cloudy
82.7 °F
Feels Like 95 °F
N
0.0
Wind Variable Wind from SW
Gusts 0.0 mph
Sunrise 6:12 AM
Sunset 6:33 PM
Moon Waning Gibbous

Tomorrow is forecast to be nearly the same temperature as today. Afternoon showers and thunderstorms.

Pressure 29.89 in
Visibility 4.3 miles
Clouds Scattered Clouds 1800 ft
Scattered Clouds 10000 ft
Mostly Cloudy 30000 ft
Heat Index 95 °F
Dew Point 81 °F
Humidity 94%
Rainfall 0.05 in
Snow Depth Not available.
UV 0.0 out of 16
Pollen Not available.
Air Quality Not available.
Flu Activity Not available.
METAR VTSP 211600Z VRB02KT 7000 SCT018 SCT100 BKN300 28/25 Q1012 A2989

More Conditions Fewer Conditions

Pressure 29.89 in
Visibility 4.3 miles
Clouds Scattered Clouds 1800 ft
Scattered Clouds 10000 ft
Mostly Cloudy 30000 ft
Heat Index 95 °F
Dew Point 81 °F
Humidity 94%
Rainfall 0.05 in
Snow Depth Not available.
UV 0.0 out of 16
Pollen Not available.
Air Quality Not available.
Flu Activity Not available.
METAR VTSP 211600Z VRB02KT 7000 SCT018 SCT100 BKN300 28/25 Q1012 A2989

More Conditions Fewer Conditions

10-Day Weather Forecast

Almanac

Astronomy

Apr. 21, 2014 Rise Set
Actual Time 6:12 AM ICT 6:33 PM ICT
Civil Twilight 5:51 AM ICT 6:54 PM ICT
Nautical Twilight 5:26 AM ICT 7:19 PM ICT
Astronomical Twilight 5:01 AM ICT 7:44 PM ICT
Moon No Moon Rise 11:22 AM ICT
Length of Visible Light 13h 03m
Length of Day
12h 20m
Tomorrow will be 0m 25s longer.
Waning Gibbous, 57% of the Moon is Illuminated
Today
Waning Gibbous
Apr 22
Last Quarter
Apr 29
New
May 6
First Quarter
May 14
Full

Today's Extremes

Country Highs Country Lows

Community

  • Bright Eyes
    Bright Eyes
  • Snowy Robin
    Snowy Robin
  • Spring Crocus
    Spring Crocus
  • Sun Pillar and Geese
    Sun Pillar and Geese
  • Showers on the Way
    Showers on the Way

WunderPhotos

Upload Photos

1,703,678 photos uploaded!

Nearby

Snow Depth

Not available.

Coastal Water Temperatures

Place Temperature
No Stations Reporting

Earthquake Activity

City Distance Mag. Time & Date
No recent earthquake activity has been reported nearby.
Minimum magnitude displayed is 2.5.

Nearby Weather Stations

Station Location Temp. Heat Index Dew Point Humidity Wind Precip. Elev Updated Type
Ao Nang, Krabi, Ao Nang 82.7 °F 95 °F 81 °F 94% SW  at  0.0 mph 0.00 in / hr 177 ft 11:10 PM ICT Normal

Show More Stations Show Fewer Stations

What do you think?

We're not finished. Please let us know what you like, what you don't like, and what you are still missing.